sensor_id;sensor_type;location;lat;lon;timestamp;pressure;altitude;pressure_sealevel;temperature;humidity
40596;BME280;26304;48.794;9.820;2023-12-20T00:02:09;96266.91;;;15.28;47.84
40596;BME280;26304;48.794;9.820;2023-12-20T00:04:31;96266.91;;;15.28;48.11
40596;BME280;26304;48.794;9.820;2023-12-20T00:06:54;96278.16;;;15.29;47.76
40596;BME280;26304;48.794;9.820;2023-12-20T00:09:17;96272.94;;;15.29;47.97
40596;BME280;26304;48.794;9.820;2023-12-20T00:11:40;96270.66;;;15.27;47.61
40596;BME280;26304;48.794;9.820;2023-12-20T00:14:03;96261.69;;;15.28;47.84
40596;BME280;26304;48.794;9.820;2023-12-20T00:16:25;96253.44;;;15.26;47.50
40596;BME280;26304;48.794;9.820;2023-12-20T00:18:48;96246.31;;;15.26;47.52
40596;BME280;26304;48.794;9.820;2023-12-20T00:21:10;96244.00;;;15.21;47.75
40596;BME280;26304;48.794;9.820;2023-12-20T00:23:32;96244.81;;;15.25;47.83
40596;BME280;26304;48.794;9.820;2023-12-20T00:25:56;96232.47;;;15.26;47.85
40596;BME280;26304;48.794;9.820;2023-12-20T00:28:18;96236.16;;;15.21;47.70
40596;BME280;26304;48.794;9.820;2023-12-20T00:30:41;96239.16;;;15.23;48.08
40596;BME280;26304;48.794;9.820;2023-12-20T00:33:04;96235.44;;;15.24;47.63
40596;BME280;26304;48.794;9.820;2023-12-20T00:35:26;96233.19;;;15.23;47.62
40596;BME280;26304;48.794;9.820;2023-12-20T00:37:48;96231.31;;;15.23;47.73
40596;BME280;26304;48.794;9.820;2023-12-20T00:40:11;96225.66;;;15.21;47.93
40596;BME280;26304;48.794;9.820;2023-12-20T00:42:35;96234.75;;;15.28;48.14
40596;BME280;26304;48.794;9.820;2023-12-20T00:44:58;96232.44;;;15.22;48.22
40596;BME280;26304;48.794;9.820;2023-12-20T00:47:21;96221.94;;;15.22;47.88
40596;BME280;26304;48.794;9.820;2023-12-20T00:49:43;96213.41;;;15.25;48.18
40596;BME280;26304;48.794;9.820;2023-12-20T00:52:05;96227.97;;;15.26;48.02
40596;BME280;26304;48.794;9.820;2023-12-20T00:54:28;96212.97;;;15.23;47.81
40596;BME280;26304;48.794;9.820;2023-12-20T00:56:51;96219.78;;;15.28;48.26
40596;BME280;26304;48.794;9.820;2023-12-20T00:59:16;96210.00;;;15.25;48.41
40596;BME280;26304;48.794;9.820;2023-12-20T01:01:39;96207.00;;;15.23;48.24
40596;BME280;26304;48.794;9.820;2023-12-20T01:04:01;96213.06;;;15.27;48.08
40596;BME280;26304;48.794;9.820;2023-12-20T01:06:24;96216.75;;;15.26;47.87
40596;BME280;26304;48.794;9.820;2023-12-20T01:08:46;96218.22;;;15.23;47.78
40596;BME280;26304;48.794;9.820;2023-12-20T01:11:08;96228.28;;;15.21;47.98
40596;BME280;26304;48.794;9.820;2023-12-20T01:13:31;96227.59;;;15.24;48.09
40596;BME280;26304;48.794;9.820;2023-12-20T01:15:54;96221.25;;;15.25;48.41
40596;BME280;26304;48.794;9.820;2023-12-20T01:18:16;96226.06;;;15.23;48.35
40596;BME280;26304;48.794;9.820;2023-12-20T01:20:39;96216.03;;;15.25;47.90
40596;BME280;26304;48.794;9.820;2023-12-20T01:23:01;96208.16;;;15.25;48.10
40596;BME280;26304;48.794;9.820;2023-12-20T01:25:23;96201.81;;;15.26;48.19
40596;BME280;26304;48.794;9.820;2023-12-20T01:27:46;96204.03;;;15.24;48.21
40596;BME280;26304;48.794;9.820;2023-12-20T01:30:09;96209.66;;;15.26;48.39
40596;BME280;26304;48.794;9.820;2023-12-20T01:32:33;96200.31;;;15.25;47.98
40596;BME280;26304;48.794;9.820;2023-12-20T01:34:55;96223.41;;;15.20;48.14
40596;BME280;26304;48.794;9.820;2023-12-20T01:37:18;96221.25;;;15.25;48.30
40596;BME280;26304;48.794;9.820;2023-12-20T01:39:40;96225.03;;;15.28;48.57
40596;BME280;26304;48.794;9.820;2023-12-20T01:42:03;96230.59;;;15.26;48.55
40596;BME280;26304;48.794;9.820;2023-12-20T01:44:25;96229.13;;;15.25;48.31
40596;BME280;26304;48.794;9.820;2023-12-20T01:46:48;96234.41;;;15.29;47.87
40596;BME280;26304;48.794;9.820;2023-12-20T01:49:12;96229.84;;;15.26;47.88
40596;BME280;26304;48.794;9.820;2023-12-20T01:51:35;96230.59;;;15.26;48.63
40596;BME280;26304;48.794;9.820;2023-12-20T01:53:59;96227.19;;;15.22;48.14
40596;BME280;26304;48.794;9.820;2023-12-20T01:56:22;96229.47;;;15.24;48.58
40596;BME280;26304;48.794;9.820;2023-12-20T01:58:46;96224.22;;;15.24;48.42
40596;BME280;26304;48.794;9.820;2023-12-20T02:01:09;96228.34;;;15.25;48.57
40596;BME280;26304;48.794;9.820;2023-12-20T02:03:32;96234.63;;;15.20;48.06
40596;BME280;26304;48.794;9.820;2023-12-20T02:05:59;96230.16;;;15.21;48.24
40596;BME280;26304;48.794;9.820;2023-12-20T02:08:21;96226.38;;;15.18;48.77
40596;BME280;26304;48.794;9.820;2023-12-20T02:10:44;96224.94;;;15.21;48.48
40596;BME280;26304;48.794;9.820;2023-12-20T02:13:06;96219.72;;;15.24;48.84
40596;BME280;26304;48.794;9.820;2023-12-20T02:15:29;96221.94;;;15.22;48.68
40596;BME280;26304;48.794;9.820;2023-12-20T02:17:51;96223.44;;;15.23;48.29
40596;BME280;26304;48.794;9.820;2023-12-20T02:20:14;96219.69;;;15.21;48.70
40596;BME280;26304;48.794;9.820;2023-12-20T02:22:38;96221.19;;;15.22;48.05
40596;BME280;26304;48.794;9.820;2023-12-20T02:25:00;96223.81;;;15.22;48.06
40596;BME280;26304;48.794;9.820;2023-12-20T02:27:23;96221.13;;;15.18;48.29
40596;BME280;26304;48.794;9.820;2023-12-20T02:29:47;96211.41;;;15.19;48.80
40596;BME280;26304;48.794;9.820;2023-12-20T02:32:09;96216.28;;;15.20;48.23
40596;BME280;26304;48.794;9.820;2023-12-20T02:34:32;96222.31;;;15.21;48.68
40596;BME280;26304;48.794;9.820;2023-12-20T02:36:54;96215.59;;;15.23;48.83
40596;BME280;26304;48.794;9.820;2023-12-20T02:39:19;96215.19;;;15.21;48.80
40596;BME280;26304;48.794;9.820;2023-12-20T02:41:41;96209.22;;;15.21;48.68
40596;BME280;26304;48.794;9.820;2023-12-20T02:44:04;96220.44;;;15.21;48.44
40596;BME280;26304;48.794;9.820;2023-12-20T02:46:26;96221.88;;;15.19;48.88
40596;BME280;26304;48.794;9.820;2023-12-20T02:48:48;96215.19;;;15.21;48.51
40596;BME280;26304;48.794;9.820;2023-12-20T02:51:11;96213.31;;;15.22;48.44
40596;BME280;26304;48.794;9.820;2023-12-20T02:53:34;96221.88;;;15.19;48.25
40596;BME280;26304;48.794;9.820;2023-12-20T02:55:57;96218.16;;;15.20;48.40
40596;BME280;26304;48.794;9.820;2023-12-20T02:58:20;96217.03;;;15.17;49.13
40596;BME280;26304;48.794;9.820;2023-12-20T03:00:42;96218.88;;;15.17;49.02
40596;BME280;26304;48.794;9.820;2023-12-20T03:03:04;96215.91;;;15.18;48.73
40596;BME280;26304;48.794;9.820;2023-12-20T03:05:26;96219.63;;;15.17;49.09
40596;BME280;26304;48.794;9.820;2023-12-20T03:07:48;96221.88;;;15.19;48.57
40596;BME280;26304;48.794;9.820;2023-12-20T03:10:10;96213.69;;;15.20;49.10
40596;BME280;26304;48.794;9.820;2023-12-20T03:12:34;96210.66;;;15.18;49.01
40596;BME280;26304;48.794;9.820;2023-12-20T03:14:57;96213.63;;;15.17;48.59
40596;BME280;26304;48.794;9.820;2023-12-20T03:17:19;96206.56;;;15.17;48.42
40596;BME280;26304;48.794;9.820;2023-12-20T03:19:42;96219.63;;;15.17;48.43
40596;BME280;26304;48.794;9.820;2023-12-20T03:22:04;96218.50;;;15.18;48.40
40596;BME280;26304;48.794;9.820;2023-12-20T03:24:26;96227.06;;;15.15;48.43
40596;BME280;26304;48.794;9.820;2023-12-20T03:26:49;96221.84;;;15.15;48.89
40596;BME280;26304;48.794;9.820;2023-12-20T03:29:13;96218.88;;;15.17;48.54
40596;BME280;26304;48.794;9.820;2023-12-20T03:31:35;96220.00;;;15.16;49.24
40596;BME280;26304;48.794;9.820;2023-12-20T03:33:57;96225.97;;;15.16;49.07
40596;BME280;26304;48.794;9.820;2023-12-20T03:36:19;96231.97;;;15.17;49.13
40596;BME280;26304;48.794;9.820;2023-12-20T03:38:41;96239.06;;;15.16;48.97
40596;BME280;26304;48.794;9.820;2023-12-20T03:41:04;96232.31;;;15.15;49.20
40596;BME280;26304;48.794;9.820;2023-12-20T03:43:26;96225.56;;;15.14;48.98
40596;BME280;26304;48.794;9.820;2023-12-20T03:45:50;96241.28;;;15.14;49.18
40596;BME280;26304;48.794;9.820;2023-12-20T03:48:12;96239.41;;;15.15;48.99
40596;BME280;26304;48.794;9.820;2023-12-20T03:50:35;96235.28;;;15.14;49.15
40596;BME280;26304;48.794;9.820;2023-12-20T03:52:57;96231.91;;;15.13;49.28
40596;BME280;26304;48.794;9.820;2023-12-20T03:55:20;96231.16;;;15.13;49.07
40596;BME280;26304;48.794;9.820;2023-12-20T03:57:42;96233.00;;;15.12;49.04
40596;BME280;26304;48.794;9.820;2023-12-20T04:00:07;96235.22;;;15.10;48.82
40596;BME280;26304;48.794;9.820;2023-12-20T04:02:32;96236.75;;;15.11;49.06
40596;BME280;26304;48.794;9.820;2023-12-20T04:04:55;96241.97;;;15.11;49.00
40596;BME280;26304;48.794;9.820;2023-12-20T04:07:17;96238.25;;;15.12;49.39
40596;BME280;26304;48.794;9.820;2023-12-20T04:09:40;96250.19;;;15.10;48.87
40596;BME280;26304;48.794;9.820;2023-12-20T04:12:03;96241.22;;;15.11;48.76
40596;BME280;26304;48.794;9.820;2023-12-20T04:14:26;96252.44;;;15.11;49.26
40596;BME280;26304;48.794;9.820;2023-12-20T04:16:49;96253.94;;;15.12;48.89
40596;BME280;26304;48.794;9.820;2023-12-20T04:19:13;96251.63;;;15.07;48.75
40596;BME280;26304;48.794;9.820;2023-12-20T04:21:35;96262.44;;;15.05;49.13
40596;BME280;26304;48.794;9.820;2023-12-20T04:23:57;96254.66;;;15.09;49.52
40596;BME280;26304;48.794;9.820;2023-12-20T04:26:20;96252.03;;;15.09;49.32
40596;BME280;26304;48.794;9.820;2023-12-20T04:28:42;96254.66;;;15.09;48.99
40596;BME280;26304;48.794;9.820;2023-12-20T04:31:04;96265.13;;;15.09;49.59
40596;BME280;26304;48.794;9.820;2023-12-20T04:33:27;96264.72;;;15.07;49.07
40596;BME280;26304;48.794;9.820;2023-12-20T04:35:51;96262.50;;;15.09;49.46
40596;BME280;26304;48.794;9.820;2023-12-20T04:38:13;96262.84;;;15.07;49.44
40596;BME280;26304;48.794;9.820;2023-12-20T04:40:36;96261.00;;;15.08;49.43
40596;BME280;26304;48.794;9.820;2023-12-20T04:42:58;96250.88;;;15.06;49.34
40596;BME280;26304;48.794;9.820;2023-12-20T04:45:21;96253.84;;;15.05;49.22
40596;BME280;26304;48.794;9.820;2023-12-20T04:47:44;96259.13;;;15.08;49.35
40596;BME280;26304;48.794;9.820;2023-12-20T04:50:08;96263.63;;;15.08;48.98
40596;BME280;26304;48.794;9.820;2023-12-20T04:52:33;96274.09;;;15.08;49.32
40596;BME280;26304;48.794;9.820;2023-12-20T04:54:56;96280.44;;;15.07;49.42
40596;BME280;26304;48.794;9.820;2023-12-20T04:57:18;96269.03;;;14.96;49.45
40596;BME280;26304;48.794;9.820;2023-12-20T04:59:41;96271.78;;;14.83;49.64
40596;BME280;26304;48.794;9.820;2023-12-20T05:02:03;96264.88;;;14.95;49.89
40596;BME280;26304;48.794;9.820;2023-12-20T05:04:26;96276.78;;;15.61;48.25
40596;BME280;26304;48.794;9.820;2023-12-20T05:06:48;96291.31;;;16.09;47.60
40596;BME280;26304;48.794;9.820;2023-12-20T05:09:13;96298.28;;;16.58;46.69
40596;BME280;26304;48.794;9.820;2023-12-20T05:11:35;96294.56;;;16.93;45.31
40596;BME280;26304;48.794;9.820;2023-12-20T05:13:58;96288.91;;;17.36;45.11
40596;BME280;26304;48.794;9.820;2023-12-20T05:16:20;96286.91;;;17.70;44.18
40596;BME280;26304;48.794;9.820;2023-12-20T05:18:43;96286.38;;;18.02;44.03
40596;BME280;26304;48.794;9.820;2023-12-20T05:21:05;96285.63;;;18.05;43.75
40596;BME280;26304;48.794;9.820;2023-12-20T05:23:27;96285.41;;;18.39;43.21
40596;BME280;26304;48.794;9.820;2023-12-20T05:25:51;96289.97;;;18.57;43.49
40596;BME280;26304;48.794;9.820;2023-12-20T05:28:13;96305.44;;;18.73;43.32
40596;BME280;26304;48.794;9.820;2023-12-20T05:30:36;96310.06;;;19.01;43.29
40596;BME280;26304;48.794;9.820;2023-12-20T05:32:58;96304.78;;;19.01;43.31
40596;BME280;26304;48.794;9.820;2023-12-20T05:35:21;96307.81;;;18.96;42.92
40596;BME280;26304;48.794;9.820;2023-12-20T05:37:44;96306.31;;;19.38;42.30
40596;BME280;26304;48.794;9.820;2023-12-20T05:40:07;96312.34;;;19.53;42.28
40596;BME280;26304;48.794;9.820;2023-12-20T05:42:32;96316.88;;;19.41;42.38
40596;BME280;26304;48.794;9.820;2023-12-20T05:44:55;96316.50;;;19.54;42.36
40596;BME280;26304;48.794;9.820;2023-12-20T05:47:17;96311.59;;;19.74;42.22
40596;BME280;26304;48.794;9.820;2023-12-20T05:49:39;96310.81;;;19.73;42.14
40596;BME280;26304;48.794;9.820;2023-12-20T05:52:02;96319.13;;;19.90;42.46
40596;BME280;26304;48.794;9.820;2023-12-20T05:54:25;96313.09;;;19.93;42.08
40596;BME280;26304;48.794;9.820;2023-12-20T05:56:47;96318.38;;;19.53;42.64
40596;BME280;26304;48.794;9.820;2023-12-20T05:59:11;96330.44;;;19.47;43.02
40596;BME280;26304;48.794;9.820;2023-12-20T06:01:33;96338.69;;;19.20;43.56
40596;BME280;26304;48.794;9.820;2023-12-20T06:03:56;96342.78;;;19.00;43.96
40596;BME280;26304;48.794;9.820;2023-12-20T06:06:18;96342.75;;;18.85;44.42
40596;BME280;26304;48.794;9.820;2023-12-20T06:08:41;96343.03;;;18.66;44.94
40596;BME280;26304;48.794;9.820;2023-12-20T06:11:04;96350.16;;;18.55;45.21
40596;BME280;26304;48.794;9.820;2023-12-20T06:13:27;96359.50;;;18.41;45.40
40596;BME280;26304;48.794;9.820;2023-12-20T06:15:51;96354.84;;;18.20;45.59
40596;BME280;26304;48.794;9.820;2023-12-20T06:18:13;96357.91;;;18.22;46.27
40596;BME280;26304;48.794;9.820;2023-12-20T06:20:36;96361.47;;;17.96;46.78
40596;BME280;26304;48.794;9.820;2023-12-20T06:22:59;96352.25;;;17.68;47.51
40596;BME280;26304;48.794;9.820;2023-12-20T06:25:21;96354.88;;;17.68;47.60
40596;BME280;26304;48.794;9.820;2023-12-20T06:27:43;96359.69;;;17.59;47.43
40596;BME280;26304;48.794;9.820;2023-12-20T06:30:06;96360.03;;;17.54;48.33
40596;BME280;26304;48.794;9.820;2023-12-20T06:32:31;96352.38;;;17.38;48.33
40596;BME280;26304;48.794;9.820;2023-12-20T06:34:55;96363.16;;;17.29;48.35
40596;BME280;26304;48.794;9.820;2023-12-20T06:37:17;96358.25;;;17.24;48.69
40596;BME280;26304;48.794;9.820;2023-12-20T06:39:40;96357.09;;;17.21;48.80
40596;BME280;26304;48.794;9.820;2023-12-20T06:42:03;96360.75;;;17.13;48.60
40596;BME280;26304;48.794;9.820;2023-12-20T06:44:25;96366.31;;;17.04;49.75
40596;BME280;26304;48.794;9.820;2023-12-20T06:46:48;96366.69;;;17.06;49.50
40596;BME280;26304;48.794;9.820;2023-12-20T06:49:12;96363.69;;;17.04;48.98
40596;BME280;26304;48.794;9.820;2023-12-20T06:51:34;96371.88;;;16.99;49.74
40596;BME280;26304;48.794;9.820;2023-12-20T06:53:56;96359.84;;;16.95;49.97
40596;BME280;26304;48.794;9.820;2023-12-20T06:56:19;96369.56;;;16.94;49.98
40596;BME280;26304;48.794;9.820;2023-12-20T06:58:41;96379.34;;;16.97;49.35
40596;BME280;26304;48.794;9.820;2023-12-20T07:01:03;96382.78;;;17.01;49.92
40596;BME280;26304;48.794;9.820;2023-12-20T07:03:25;96386.25;;;17.09;49.42
40596;BME280;26304;48.794;9.820;2023-12-20T07:05:49;96378.00;;;17.11;49.22
40596;BME280;26304;48.794;9.820;2023-12-20T07:08:12;96382.84;;;17.09;49.23
40596;BME280;26304;48.794;9.820;2023-12-20T07:10:36;96387.38;;;17.12;49.30
40596;BME280;26304;48.794;9.820;2023-12-20T07:12:59;96394.13;;;17.09;49.74
40596;BME280;26304;48.794;9.820;2023-12-20T07:15:22;96392.94;;;17.03;49.80
40596;BME280;26304;48.794;9.820;2023-12-20T07:17:45;96395.91;;;17.01;49.82
40596;BME280;26304;48.794;9.820;2023-12-20T07:20:09;96396.25;;;16.96;50.07
40596;BME280;26304;48.794;9.820;2023-12-20T07:22:33;96404.84;;;16.93;49.66
40596;BME280;26304;48.794;9.820;2023-12-20T07:24:55;96406.28;;;16.91;49.53
40596;BME280;26304;48.794;9.820;2023-12-20T07:27:18;96411.56;;;16.94;49.58
40596;BME280;26304;48.794;9.820;2023-12-20T07:29:40;96406.66;;;16.89;49.72
40596;BME280;26304;48.794;9.820;2023-12-20T07:32:04;96408.81;;;16.83;49.83
40596;BME280;26304;48.794;9.820;2023-12-20T07:34:26;96408.47;;;16.85;49.59
40596;BME280;26304;48.794;9.820;2023-12-20T07:36:49;96417.13;;;16.85;49.68
40596;BME280;26304;48.794;9.820;2023-12-20T07:39:14;96424.72;;;16.94;49.60
40596;BME280;26304;48.794;9.820;2023-12-20T07:41:36;96428.75;;;16.88;49.71
40596;BME280;26304;48.794;9.820;2023-12-20T07:43:59;96432.09;;;16.85;49.65
40596;BME280;26304;48.794;9.820;2023-12-20T07:46:21;96431.69;;;16.83;50.30
40596;BME280;26304;48.794;9.820;2023-12-20T07:48:44;96430.19;;;16.82;50.24
40596;BME280;26304;48.794;9.820;2023-12-20T07:51:07;96430.53;;;16.80;50.16
40596;BME280;26304;48.794;9.820;2023-12-20T07:53:31;96431.69;;;16.83;49.91
40596;BME280;26304;48.794;9.820;2023-12-20T07:55:55;96423.78;;;16.83;49.70
40596;BME280;26304;48.794;9.820;2023-12-20T07:58:17;96421.16;;;16.83;49.62
40596;BME280;26304;48.794;9.820;2023-12-20T08:00:40;96432.38;;;16.80;50.21
40596;BME280;26304;48.794;9.820;2023-12-20T08:03:02;96439.88;;;16.78;50.37
40596;BME280;26304;48.794;9.820;2023-12-20T08:05:25;96431.69;;;16.83;49.66
40596;BME280;26304;48.794;9.820;2023-12-20T08:07:47;96437.63;;;16.80;50.35
40596;BME280;26304;48.794;9.820;2023-12-20T08:10:10;96431.28;;;16.81;50.24
40596;BME280;26304;48.794;9.820;2023-12-20T08:12:34;96438.06;;;16.82;49.71
40596;BME280;26304;48.794;9.820;2023-12-20T08:14:56;96442.88;;;16.80;50.21
40596;BME280;26304;48.794;9.820;2023-12-20T08:17:19;96442.09;;;16.76;49.99
40596;BME280;26304;48.794;9.820;2023-12-20T08:19:41;96445.81;;;16.75;50.20
40596;BME280;26304;48.794;9.820;2023-12-20T08:22:03;96451.81;;;16.75;50.51
40596;BME280;26304;48.794;9.820;2023-12-20T08:24:26;96454.81;;;16.74;50.30
40596;BME280;26304;48.794;9.820;2023-12-20T08:26:48;96458.56;;;16.73;50.44
40596;BME280;26304;48.794;9.820;2023-12-20T08:29:13;96456.72;;;16.77;50.51
40596;BME280;26304;48.794;9.820;2023-12-20T08:31:36;96455.53;;;16.70;50.53
40596;BME280;26304;48.794;9.820;2023-12-20T08:33:58;96460.78;;;16.70;50.11
40596;BME280;26304;48.794;9.820;2023-12-20T08:36:21;96476.22;;;16.76;50.30
40596;BME280;26304;48.794;9.820;2023-12-20T08:38:44;96467.53;;;16.71;50.75
40596;BME280;26304;48.794;9.820;2023-12-20T08:41:07;96471.38;;;16.78;50.63
40596;BME280;26304;48.794;9.820;2023-12-20T08:43:29;96478.19;;;16.82;50.41
40596;BME280;26304;48.794;9.820;2023-12-20T08:45:53;96480.44;;;16.84;50.14
40596;BME280;26304;48.794;9.820;2023-12-20T08:48:15;96477.94;;;16.91;50.13
40596;BME280;26304;48.794;9.820;2023-12-20T08:50:38;96474.09;;;16.85;50.08
40596;BME280;26304;48.794;9.820;2023-12-20T08:53:00;96491.78;;;16.88;49.75
40596;BME280;26304;48.794;9.820;2023-12-20T08:55:22;96482.75;;;16.85;49.91
40596;BME280;26304;48.794;9.820;2023-12-20T08:57:45;96487.88;;;16.78;49.87
40596;BME280;26304;48.794;9.820;2023-12-20T09:00:08;96488.28;;;16.80;49.84
40596;BME280;26304;48.794;9.820;2023-12-20T09:02:32;96490.22;;;16.57;50.61
40596;BME280;26304;48.794;9.820;2023-12-20T09:04:57;96495.38;;;15.41;51.72
40596;BME280;26304;48.794;9.820;2023-12-20T09:07:23;96487.53;;;13.87;53.10
40596;BME280;26304;48.794;9.820;2023-12-20T09:09:46;96491.03;;;13.78;52.40
40596;BME280;26304;48.794;9.820;2023-12-20T09:12:08;96489.78;;;13.44;53.28
40596;BME280;26304;48.794;9.820;2023-12-20T09:14:30;96491.47;;;13.36;52.66
40596;BME280;26304;48.794;9.820;2023-12-20T09:16:53;96490.59;;;13.60;52.74
40596;BME280;26304;48.794;9.820;2023-12-20T09:19:18;96482.38;;;14.38;50.97
40596;BME280;26304;48.794;9.820;2023-12-20T09:21:40;96483.94;;;14.91;49.69
40596;BME280;26304;48.794;9.820;2023-12-20T09:24:03;96476.16;;;15.14;49.42
40596;BME280;26304;48.794;9.820;2023-12-20T09:26:26;96475.38;;;15.52;49.27
40596;BME280;26304;48.794;9.820;2023-12-20T09:28:48;96477.38;;;15.78;48.21
40596;BME280;26304;48.794;9.820;2023-12-20T09:31:11;96479.09;;;16.94;47.09
40596;BME280;26304;48.794;9.820;2023-12-20T09:33:33;96488.69;;;17.43;45.70
40596;BME280;26304;48.794;9.820;2023-12-20T09:35:57;96486.41;;;17.41;45.46
40596;BME280;26304;48.794;9.820;2023-12-20T09:38:20;96498.34;;;17.35;45.89
40596;BME280;26304;48.794;9.820;2023-12-20T09:40:43;96496.38;;;17.25;46.13
40596;BME280;26304;48.794;9.820;2023-12-20T09:43:10;96498.84;;;17.11;46.93
40596;BME280;26304;48.794;9.820;2023-12-20T09:45:33;96495.34;;;17.03;46.92
40596;BME280;26304;48.794;9.820;2023-12-20T09:47:56;96494.84;;;16.94;47.68
40596;BME280;26304;48.794;9.820;2023-12-20T09:50:20;96512.03;;;16.87;47.50
40596;BME280;26304;48.794;9.820;2023-12-20T09:52:46;96503.84;;;16.66;48.33
40596;BME280;26304;48.794;9.820;2023-12-20T09:55:12;96500.66;;;16.53;48.64
40596;BME280;26304;48.794;9.820;2023-12-20T09:57:34;96498.78;;;16.53;48.85
40596;BME280;26304;48.794;9.820;2023-12-20T09:59:57;96499.44;;;16.47;49.00
40596;BME280;26304;48.794;9.820;2023-12-20T10:02:24;96490.78;;;16.46;48.45
40596;BME280;26304;48.794;9.820;2023-12-20T10:04:48;96500.53;;;16.46;48.88
40596;BME280;26304;48.794;9.820;2023-12-20T10:07:10;96501.81;;;16.56;48.42
40596;BME280;26304;48.794;9.820;2023-12-20T10:09:34;96499.44;;;16.47;48.97
40596;BME280;26304;48.794;9.820;2023-12-20T10:11:57;96498.22;;;16.41;48.67
40596;BME280;26304;48.794;9.820;2023-12-20T10:14:21;96499.31;;;16.40;49.11
40596;BME280;26304;48.794;9.820;2023-12-20T10:16:44;96495.56;;;16.37;49.11
40596;BME280;26304;48.794;9.820;2023-12-20T10:19:06;96497.75;;;16.35;49.24
40596;BME280;26304;48.794;9.820;2023-12-20T10:21:28;96499.28;;;16.36;48.93
40596;BME280;26304;48.794;9.820;2023-12-20T10:23:51;96496.31;;;16.38;49.06
40596;BME280;26304;48.794;9.820;2023-12-20T10:26:20;96494.38;;;16.34;49.05
40596;BME280;26304;48.794;9.820;2023-12-20T10:28:43;96491.00;;;16.34;49.43
40596;BME280;26304;48.794;9.820;2023-12-20T10:31:05;96479.75;;;16.33;49.08
40596;BME280;26304;48.794;9.820;2023-12-20T10:33:31;96481.13;;;16.27;49.08
40596;BME280;26304;48.794;9.820;2023-12-20T10:35:55;96487.25;;;16.35;48.84
40596;BME280;26304;48.794;9.820;2023-12-20T10:38:18;96476.72;;;16.31;49.18
40596;BME280;26304;48.794;9.820;2023-12-20T10:40:40;96479.81;;;16.37;49.16
40596;BME280;26304;48.794;9.820;2023-12-20T10:43:04;96487.97;;;16.32;49.45
40596;BME280;26304;48.794;9.820;2023-12-20T10:45:27;96486.38;;;16.27;49.53
40596;BME280;26304;48.794;9.820;2023-12-20T10:47:50;96473.69;;;16.29;49.21
40596;BME280;26304;48.794;9.820;2023-12-20T10:50:12;96478.69;;;16.38;49.65
40596;BME280;26304;48.794;9.820;2023-12-20T10:52:35;96477.97;;;16.41;49.65
40596;BME280;26304;48.794;9.820;2023-12-20T10:54:58;96480.56;;;16.38;49.59
40596;BME280;26304;48.794;9.820;2023-12-20T10:57:21;96474.16;;;16.35;49.27
40596;BME280;26304;48.794;9.820;2023-12-20T10:59:45;96471.06;;;16.29;49.87
40596;BME280;26304;48.794;9.820;2023-12-20T11:02:08;96473.69;;;16.29;49.62
40596;BME280;26304;48.794;9.820;2023-12-20T11:04:37;96472.56;;;16.30;50.10
40596;BME280;26304;48.794;9.820;2023-12-20T11:07:08;96465.41;;;16.27;49.78
40596;BME280;26304;48.794;9.820;2023-12-20T11:09:41;96459.41;;;16.27;50.04
40596;BME280;26304;48.794;9.820;2023-12-20T11:12:17;96459.66;;;16.18;50.45
40596;BME280;26304;48.794;9.820;2023-12-20T11:14:47;96451.38;;;16.16;50.09
40596;BME280;26304;48.794;9.820;2023-12-20T11:17:10;96455.81;;;16.12;50.47
40596;BME280;26304;48.794;9.820;2023-12-20T11:19:42;96456.91;;;16.11;50.01
40596;BME280;26304;48.794;9.820;2023-12-20T11:22:24;96447.81;;;16.05;50.52
40596;BME280;26304;48.794;9.820;2023-12-20T11:24:48;96442.59;;;16.05;50.10
40596;BME280;26304;48.794;9.820;2023-12-20T11:27:10;96441.09;;;16.04;50.04
40596;BME280;26304;48.794;9.820;2023-12-20T11:29:35;96444.81;;;16.03;50.33
40596;BME280;26304;48.794;9.820;2023-12-20T11:32:01;96450.81;;;16.03;50.83
40596;BME280;26304;48.794;9.820;2023-12-20T11:34:27;96451.50;;;16.00;50.42
40596;BME280;26304;48.794;9.820;2023-12-20T11:36:57;96446.25;;;16.00;50.27
40596;BME280;26304;48.794;9.820;2023-12-20T11:39:21;96438.75;;;15.98;50.82
40596;BME280;26304;48.794;9.820;2023-12-20T11:41:44;96442.88;;;16.00;50.28
40596;BME280;26304;48.794;9.820;2023-12-20T11:44:07;96444.81;;;16.03;50.54
40596;BME280;26304;48.794;9.820;2023-12-20T11:46:31;96440.66;;;16.02;50.17
40596;BME280;26304;48.794;9.820;2023-12-20T11:48:55;96442.25;;;16.06;50.26
40596;BME280;26304;48.794;9.820;2023-12-20T11:51:18;96431.75;;;16.06;50.32
40596;BME280;26304;48.794;9.820;2023-12-20T11:53:41;96433.56;;;16.02;51.05
40596;BME280;26304;48.794;9.820;2023-12-20T11:56:05;96439.56;;;16.03;50.79
40596;BME280;26304;48.794;9.820;2023-12-20T11:58:27;96434.44;;;16.10;50.54
40596;BME280;26304;48.794;9.820;2023-12-20T12:00:50;96434.84;;;16.12;50.53
40596;BME280;26304;48.794;9.820;2023-12-20T12:03:15;96435.63;;;16.16;51.25
40596;BME280;26304;48.794;9.820;2023-12-20T12:05:39;96430.81;;;16.18;51.84
40596;BME280;26304;48.794;9.820;2023-12-20T12:08:02;96432.78;;;16.25;51.61
40596;BME280;26304;48.794;9.820;2023-12-20T12:10:24;96433.38;;;16.41;50.87
40596;BME280;26304;48.794;9.820;2023-12-20T12:12:47;96437.41;;;16.62;51.98
40596;BME280;26304;48.794;9.820;2023-12-20T12:15:09;96428.56;;;17.04;50.58
40596;BME280;26304;48.794;9.820;2023-12-20T12:17:32;96425.94;;;17.38;50.16
40596;BME280;26304;48.794;9.820;2023-12-20T12:20:02;96431.75;;;17.99;48.35
40596;BME280;26304;48.794;9.820;2023-12-20T12:22:26;96431.78;;;18.62;47.21
40596;BME280;26304;48.794;9.820;2023-12-20T12:24:49;96437.22;;;18.91;46.56
40596;BME280;26304;48.794;9.820;2023-12-20T12:27:12;96431.31;;;19.22;46.13
40596;BME280;26304;48.794;9.820;2023-12-20T12:29:34;96432.50;;;19.57;45.38
40596;BME280;26304;48.794;9.820;2023-12-20T12:31:57;96437.44;;;19.70;45.31
40596;BME280;26304;48.794;9.820;2023-12-20T12:34:19;96425.78;;;19.78;44.81
40596;BME280;26304;48.794;9.820;2023-12-20T12:36:42;96428.81;;;19.98;44.32
40596;BME280;26304;48.794;9.820;2023-12-20T12:39:06;96421.63;;;20.13;44.50